Time;durP1;ratioP1;P1;durP2;ratioP2;P2;SDS_P1;SDS_P2;PMS_P1;PMS_P2;Temp;Humidity;BMP_temperature;BMP_pressure;BME280_temperature;BME280_humidity;BME280_pressure;Samples;Min_cycle;Max_cycle;Signal;HPM_P1;HPM_P2
2023/01/25 00:01:59;;;;;;;17.17;11.00;;;2.10;99.90;;;;;;5085396;28;20048;-85
2023/01/25 00:04:25;;;;;;;16.40;10.67;;;2.10;99.90;;;;;;5068284;28;20399;-84
2023/01/25 00:06:51;;;;;;;19.13;12.10;;;2.20;99.90;;;;;;5085662;28;20085;-83
2023/01/25 00:09:18;;;;;;;16.43;13.03;;;2.10;99.90;;;;;;5069018;28;20039;-83
2023/01/25 00:11:43;;;;;;;16.87;11.90;;;2.10;99.90;;;;;;5085332;28;20086;-86
2023/01/25 00:14:10;;;;;;;14.40;9.70;;;2.10;99.90;;;;;;5086932;28;20064;-84
2023/01/25 00:16:36;;;;;;;16.20;10.93;;;2.10;99.90;;;;;;5086426;28;20532;-85
2023/01/25 00:19:02;;;;;;;20.07;11.57;;;2.10;99.90;;;;;;5086326;28;20040;-85
2023/01/25 00:21:28;;;;;;;20.20;11.50;;;2.00;99.90;;;;;;5086447;28;20044;-85
2023/01/25 00:23:53;;;;;;;17.97;11.73;;;2.00;99.90;;;;;;5086543;28;20040;-84
2023/01/25 00:26:19;;;;;;;21.00;13.60;;;2.00;99.90;;;;;;5084773;28;20389;-85
2023/01/25 00:28:49;;;;;;;17.30;11.53;;;2.00;99.90;;;;;;5085052;28;20485;-85
2023/01/25 00:31:21;;;;;;;20.53;13.20;;;2.00;99.90;;;;;;5086585;28;20496;-85
2023/01/25 00:34:00;;;;;;;27.90;16.10;;;2.00;99.90;;;;;;5085753;28;20114;-84
2023/01/25 00:36:38;;;;;;;28.23;13.37;;;2.00;99.90;;;;;;5068020;28;20119;-85
2023/01/25 00:39:05;;;;;;;18.50;11.27;;;2.00;99.90;;;;;;5086649;28;20396;-85
2023/01/25 00:41:31;;;;;;;18.00;14.17;;;2.00;99.90;;;;;;5084391;28;20048;-84
2023/01/25 00:43:57;;;;;;;20.53;12.70;;;2.00;99.90;;;;;;5068232;28;20062;-85
2023/01/25 00:46:22;;;;;;;20.83;13.97;;;2.00;99.90;;;;;;5086075;28;20500;-85
2023/01/25 00:48:48;;;;;;;25.30;14.17;;;2.00;99.90;;;;;;5086501;28;20407;-85
2023/01/25 00:51:14;;;;;;;21.27;12.97;;;2.00;99.90;;;;;;5088927;28;20054;-85
2023/01/25 00:53:40;;;;;;;21.97;12.30;;;2.00;99.90;;;;;;5090238;28;20044;-84
2023/01/25 00:56:06;;;;;;;20.60;12.53;;;2.00;99.90;;;;;;5071169;28;20101;-85
2023/01/25 00:58:32;;;;;;;20.60;15.07;;;2.00;99.90;;;;;;5089381;28;20036;-85
2023/01/25 01:00:57;;;;;;;18.60;12.57;;;2.00;99.90;;;;;;5088980;28;20446;-85
2023/01/25 01:03:23;;;;;;;18.13;12.87;;;2.00;99.90;;;;;;5089679;28;20488;-85
2023/01/25 01:06:07;;;;;;;23.80;13.13;;;2.00;99.90;;;;;;5088617;28;20054;-84
2023/01/25 01:08:35;;;;;;;21.40;13.03;;;2.00;99.90;;;;;;5071259;28;20511;-84
2023/01/25 01:11:04;;;;;;;21.27;15.20;;;2.00;99.90;;;;;;5089096;28;20051;-85
2023/01/25 01:13:30;;;;;;;23.37;14.00;;;2.00;99.90;;;;;;5089704;28;20111;-84
2023/01/25 01:15:58;;;;;;;24.13;14.27;;;2.00;99.90;;;;;;5088018;28;20044;-85
2023/01/25 01:18:24;;;;;;;21.63;13.70;;;2.00;99.90;;;;;;5089133;28;20039;-85
2023/01/25 01:20:51;;;;;;;26.10;14.10;;;2.00;99.90;;;;;;5089948;28;20128;-85
2023/01/25 01:23:18;;;;;;;21.67;14.67;;;2.00;99.90;;;;;;5088480;28;20048;-84
2023/01/25 01:25:44;;;;;;;19.63;14.80;;;2.00;99.90;;;;;;5086807;28;20089;-85
2023/01/25 01:28:10;;;;;;;20.33;14.20;;;2.00;99.90;;;;;;5088394;28;20051;-84
2023/01/25 01:30:38;;;;;;;22.77;16.03;;;2.00;99.90;;;;;;5087951;28;20055;-84
2023/01/25 01:33:05;;;;;;;25.47;17.37;;;2.00;99.90;;;;;;5089083;28;20044;-85
2023/01/25 01:35:31;;;;;;;16.53;12.67;;;2.00;99.90;;;;;;5087616;28;20419;-85
2023/01/25 01:37:57;;;;;;;21.17;14.13;;;2.00;99.90;;;;;;5089348;28;20055;-84
2023/01/25 01:40:23;;;;;;;24.13;15.93;;;1.90;99.90;;;;;;5086867;28;20032;-84
2023/01/25 01:43:14;;;;;;;22.50;14.73;;;1.90;99.90;;;;;;5089530;28;20040;-85
2023/01/25 01:45:46;;;;;;;27.23;17.50;;;1.90;99.90;;;;;;5088886;28;20601;-84
2023/01/25 01:48:39;;;;;;;33.13;15.47;;;1.90;99.90;;;;;;5087455;28;20175;-85
2023/01/25 01:51:14;;;;;;;19.60;13.80;;;1.90;99.90;;;;;;5088983;28;20071;-85
2023/01/25 01:53:44;;;;;;;22.33;16.23;;;1.80;99.90;;;;;;5088456;28;20048;-84
2023/01/25 01:56:14;;;;;;;30.50;20.03;;;1.80;99.90;;;;;;5069911;28;20051;-83
2023/01/25 01:58:41;;;;;;;26.73;16.70;;;1.80;99.90;;;;;;5088484;28;20123;-84
2023/01/25 02:01:07;;;;;;;30.23;18.27;;;1.80;99.90;;;;;;5088289;28;20048;-85
2023/01/25 02:03:34;;;;;;;19.90;14.53;;;1.80;99.90;;;;;;5088191;28;20036;-84
2023/01/25 02:06:17;;;;;;;20.83;14.70;;;1.80;99.90;;;;;;5088603;28;20132;-85
2023/01/25 02:08:44;;;;;;;22.57;16.40;;;1.80;99.90;;;;;;5072110;28;20440;-82
2023/01/25 02:11:11;;;;;;;22.93;17.77;;;1.80;99.90;;;;;;5152978;22;20044;-83
2023/01/25 02:13:36;;;;;;;33.60;20.30;;;1.80;99.90;;;;;;5049898;28;20044;-84
2023/01/25 02:16:03;;;;;;;32.27;18.50;;;1.80;99.90;;;;;;5036924;28;20052;-84
2023/01/25 02:18:30;;;;;;;24.83;21.37;;;1.80;99.90;;;;;;5030346;28;20083;-84
2023/01/25 02:20:58;;;;;;;20.53;15.97;;;1.80;99.90;;;;;;5048111;28;20116;-83
2023/01/25 02:23:48;;;;;;;22.27;16.43;;;1.80;99.90;;;;;;5030638;28;20041;-84
2023/01/25 02:26:16;;;;;;;32.83;18.47;;;1.80;99.90;;;;;;5029810;28;20045;-83
2023/01/25 02:28:50;;;;;;;39.73;19.10;;;1.80;99.90;;;;;;5047986;28;20075;-84
2023/01/25 02:31:16;;;;;;;28.17;21.87;;;1.80;99.90;;;;;;5030521;28;20393;-82
2023/01/25 02:33:42;;;;;;;29.13;17.73;;;1.80;99.90;;;;;;5047609;28;20044;-84
2023/01/25 02:36:08;;;;;;;24.67;17.83;;;1.80;99.90;;;;;;5047996;28;20044;-84
2023/01/25 02:38:41;;;;;;;21.60;17.13;;;1.80;99.90;;;;;;5047704;28;20408;-84
2023/01/25 02:41:18;;;;;;;31.97;20.03;;;1.80;99.90;;;;;;5046940;28;20055;-83
2023/01/25 02:43:44;;;;;;;36.53;21.53;;;1.80;99.90;;;;;;5041748;28;20047;-83
2023/01/25 02:46:16;;;;;;;31.17;21.67;;;1.80;99.90;;;;;;5067722;28;20052;-84
2023/01/25 02:48:42;;;;;;;29.43;20.17;;;1.80;99.90;;;;;;5049549;28;20440;-84
2023/01/25 02:51:08;;;;;;;31.83;20.53;;;1.70;99.90;;;;;;5049615;28;20094;-84
2023/01/25 02:53:34;;;;;;;35.50;22.33;;;1.70;99.90;;;;;;5066602;28;20041;-84
2023/01/25 02:56:00;;;;;;;32.40;21.13;;;1.70;99.90;;;;;;5066344;28;21261;-84
2023/01/25 02:58:25;;;;;;;39.03;21.00;;;1.80;99.90;;;;;;5032768;28;20581;-83
2023/01/25 03:00:51;;;;;;;26.17;17.70;;;1.70;99.90;;;;;;5067332;28;20040;-85
2023/01/25 03:03:17;;;;;;;33.33;20.63;;;1.70;99.90;;;;;;5067799;28;20112;-84
2023/01/25 03:05:43;;;;;;;33.73;21.33;;;1.70;99.90;;;;;;5067216;28;20123;-84
2023/01/25 03:08:09;;;;;;;41.00;19.73;;;1.70;99.90;;;;;;5066919;28;20033;-83
2023/01/25 03:10:34;;;;;;;29.53;17.67;;;1.70;99.90;;;;;;5047896;28;20051;-83
2023/01/25 03:13:00;;;;;;;34.13;21.73;;;1.70;99.90;;;;;;5066104;28;20041;-83
2023/01/25 03:15:26;;;;;;;31.40;19.43;;;1.60;99.90;;;;;;5040407;28;20104;-84
2023/01/25 03:17:51;;;;;;;34.87;21.10;;;1.70;99.90;;;;;;5054060;28;20500;-83
2023/01/25 03:20:17;;;;;;;31.47;22.23;;;1.70;99.90;;;;;;5049214;28;20041;-84
2023/01/25 03:22:42;;;;;;;35.93;21.83;;;1.70;99.90;;;;;;5066625;28;20037;-84
2023/01/25 03:25:08;;;;;;;29.63;19.57;;;1.70;99.90;;;;;;5065930;28;20068;-84
2023/01/25 03:27:34;;;;;;;40.97;21.67;;;1.60;99.90;;;;;;5048433;28;20507;-84
2023/01/25 03:29:59;;;;;;;26.13;16.07;;;1.60;99.90;;;;;;5067009;28;20526;-84
2023/01/25 03:32:25;;;;;;;33.03;21.87;;;1.60;99.90;;;;;;5048777;28;20037;-84
2023/01/25 03:34:51;;;;;;;31.13;19.43;;;1.60;99.90;;;;;;5066601;28;20455;-82
2023/01/25 03:37:16;;;;;;;29.20;18.47;;;1.60;99.90;;;;;;5067061;28;20056;-83
2023/01/25 03:39:42;;;;;;;36.50;19.50;;;1.60;99.90;;;;;;5065308;28;20720;-84
2023/01/25 03:42:07;;;;;;;35.87;19.03;;;1.60;99.90;;;;;;5066615;28;20411;-81
2023/01/25 03:44:33;;;;;;;33.90;17.23;;;1.60;99.90;;;;;;5048333;28;20075;-84
2023/01/25 03:46:58;;;;;;;31.93;19.30;;;1.50;99.90;;;;;;5048843;28;20046;-83
2023/01/25 03:49:24;;;;;;;31.80;20.10;;;1.50;99.90;;;;;;5066451;28;20518;-82
2023/01/25 03:51:50;;;;;;;37.33;21.97;;;1.50;99.90;;;;;;5066883;28;20036;-84
2023/01/25 03:54:15;;;;;;;43.10;21.57;;;1.40;99.90;;;;;;5047616;28;20040;-83
2023/01/25 03:56:41;;;;;;;31.43;19.07;;;1.50;99.90;;;;;;5066185;28;20052;-82
2023/01/25 03:59:07;;;;;;;34.20;19.50;;;1.50;99.90;;;;;;5048799;28;20488;-84
2023/01/25 04:01:32;;;;;;;38.30;21.73;;;1.50;99.90;;;;;;5066410;28;20131;-84
2023/01/25 04:03:58;;;;;;;36.73;20.33;;;1.50;99.90;;;;;;5048833;28;20055;-84
2023/01/25 04:06:24;;;;;;;34.40;22.73;;;1.50;99.90;;;;;;5066323;28;20064;-84
2023/01/25 04:08:49;;;;;;;30.67;21.50;;;1.50;99.90;;;;;;5066880;28;20049;-83
2023/01/25 04:11:15;;;;;;;33.83;22.00;;;1.50;99.90;;;;;;5065250;28;20053;-83
2023/01/25 04:13:40;;;;;;;39.97;21.90;;;1.50;99.90;;;;;;5066693;28;20371;-83
2023/01/25 04:16:08;;;;;;;32.43;20.17;;;1.50;99.90;;;;;;5066747;28;20044;-83
2023/01/25 04:18:34;;;;;;;29.93;19.23;;;1.50;99.90;;;;;;5066314;28;20040;-84
2023/01/25 04:20:59;;;;;;;33.57;20.50;;;1.50;99.90;;;;;;5066479;28;20369;-84
2023/01/25 04:23:26;;;;;;;32.30;19.77;;;1.50;99.90;;;;;;5066260;28;20086;-83
2023/01/25 04:25:59;;;;;;;30.73;22.10;;;1.50;99.90;;;;;;5069489;28;20406;-84
2023/01/25 04:28:26;;;;;;;38.77;18.97;;;1.60;99.90;;;;;;5052086;28;20516;-84
2023/01/25 04:30:53;;;;;;;40.17;21.60;;;1.50;99.90;;;;;;5070213;28;20044;-83
2023/01/25 04:33:18;;;;;;;27.87;18.67;;;1.60;99.90;;;;;;5052698;28;20551;-83
2023/01/25 04:35:44;;;;;;;33.13;21.63;;;1.60;99.90;;;;;;5069503;28;20115;-83
2023/01/25 04:38:10;;;;;;;34.77;21.37;;;1.50;99.90;;;;;;5070182;28;20489;-84
2023/01/25 04:40:36;;;;;;;35.37;18.83;;;1.50;99.90;;;;;;5050966;28;20098;-84
2023/01/25 04:43:02;;;;;;;29.57;17.27;;;1.50;99.90;;;;;;5070145;28;20048;-84
2023/01/25 04:45:28;;;;;;;33.63;19.90;;;1.50;99.90;;;;;;5051842;28;20044;-83
2023/01/25 04:47:58;;;;;;;32.03;17.33;;;1.40;99.90;;;;;;5052030;28;20074;-83
2023/01/25 04:50:24;;;;;;;29.30;18.60;;;1.40;99.90;;;;;;5051901;28;20045;-84
2023/01/25 04:52:50;;;;;;;31.10;18.60;;;1.40;99.90;;;;;;5052280;28;20041;-84
2023/01/25 04:55:16;;;;;;;32.10;18.73;;;1.40;99.90;;;;;;5050998;28;20044;-84
2023/01/25 04:57:42;;;;;;;32.60;17.97;;;1.40;99.90;;;;;;5051890;28;20040;-84
2023/01/25 05:00:08;;;;;;;28.67;20.20;;;1.40;99.90;;;;;;5069384;28;20063;-83
2023/01/25 05:02:33;;;;;;;32.30;20.53;;;1.40;99.90;;;;;;5051611;28;20484;-83
2023/01/25 05:04:59;;;;;;;22.80;16.53;;;1.40;99.90;;;;;;5069487;28;20043;-84
2023/01/25 05:07:25;;;;;;;26.07;19.13;;;1.40;99.90;;;;;;5034469;28;20048;-83
2023/01/25 05:09:50;;;;;;;28.90;18.23;;;1.40;99.90;;;;;;5068809;28;20063;-82
2023/01/25 05:12:16;;;;;;;30.40;20.57;;;1.40;99.90;;;;;;5048433;28;20108;-83
2023/01/25 05:14:41;;;;;;;26.67;20.83;;;1.40;99.90;;;;;;5028585;28;20049;-84
2023/01/25 05:17:07;;;;;;;31.60;20.07;;;1.40;99.90;;;;;;5029576;28;20053;-83
2023/01/25 05:19:33;;;;;;;35.57;22.47;;;1.40;99.90;;;;;;5029045;28;20037;-83
2023/01/25 05:22:00;;;;;;;31.47;18.90;;;1.40;99.90;;;;;;5029137;28;20041;-82
2023/01/25 05:24:31;;;;;;;30.13;19.90;;;1.40;99.90;;;;;;5028291;28;20378;-84
2023/01/25 05:27:02;;;;;;;25.80;17.73;;;1.40;99.90;;;;;;5029017;28;20409;-83
2023/01/25 05:29:34;;;;;;;37.50;22.20;;;1.40;99.90;;;;;;5030045;28;20037;-83
2023/01/25 05:32:01;;;;;;;42.75;21.52;;;1.40;99.90;;;;;;5049031;28;20421;-83
2023/01/25 05:34:27;;;;;;;37.50;23.10;;;1.40;99.90;;;;;;5048753;28;20045;-84
2023/01/25 05:36:52;;;;;;;37.57;20.90;;;1.40;99.90;;;;;;5047617;28;20055;-84
2023/01/25 05:39:18;;;;;;;37.37;19.50;;;1.30;99.90;;;;;;5048392;28;20045;-82
2023/01/25 05:41:44;;;;;;;29.70;20.50;;;1.40;99.90;;;;;;5048474;28;20044;-84
2023/01/25 05:44:09;;;;;;;33.83;17.13;;;1.40;99.90;;;;;;5047493;28;20048;-83
2023/01/25 05:46:35;;;;;;;29.73;18.17;;;1.40;99.90;;;;;;5048495;28;20128;-84
2023/01/25 05:49:01;;;;;;;22.53;18.47;;;1.40;99.90;;;;;;5048710;28;20036;-83
2023/01/25 05:51:26;;;;;;;35.17;21.00;;;1.40;99.90;;;;;;5047055;28;20123;-84
2023/01/25 05:53:55;;;;;;;37.80;17.40;;;1.40;99.90;;;;;;5046688;28;20051;-82
2023/01/25 05:56:21;;;;;;;28.97;20.93;;;1.40;99.90;;;;;;5048088;28;20055;-83
2023/01/25 05:58:52;;;;;;;33.20;21.43;;;1.40;99.90;;;;;;5048811;28;20067;-83
2023/01/25 06:01:17;;;;;;;32.53;20.70;;;1.40;99.90;;;;;;5048581;28;20076;-82
2023/01/25 06:03:44;;;;;;;33.17;19.77;;;1.40;99.90;;;;;;5045896;28;20279;-82
2023/01/25 06:06:10;;;;;;;30.47;17.97;;;1.40;99.90;;;;;;5046548;28;21057;-83
2023/01/25 06:08:35;;;;;;;38.93;18.53;;;1.40;99.90;;;;;;5045727;28;20135;-84
2023/01/25 06:11:06;;;;;;;26.17;19.33;;;1.50;99.90;;;;;;5030187;28;20065;-83
2023/01/25 06:13:32;;;;;;;35.57;23.17;;;1.40;99.90;;;;;;5030061;28;20097;-84
2023/01/25 06:15:58;;;;;;;37.33;20.17;;;1.40;99.90;;;;;;5045242;28;20040;-83
2023/01/25 06:18:23;;;;;;;34.47;21.10;;;1.40;99.90;;;;;;5044995;28;20033;-82
2023/01/25 06:20:50;;;;;;;28.27;17.43;;;1.40;99.90;;;;;;5046249;28;20079;-83
2023/01/25 06:23:15;;;;;;;27.87;19.27;;;1.40;99.90;;;;;;5047856;28;20148;-82
2023/01/25 06:25:41;;;;;;;27.10;18.97;;;1.50;99.90;;;;;;5041720;28;20405;-83
2023/01/25 06:28:07;;;;;;;35.27;20.90;;;1.50;99.90;;;;;;5042291;28;20130;-82
2023/01/25 06:30:33;;;;;;;31.00;18.63;;;1.40;99.90;;;;;;5048707;28;20041;-83
2023/01/25 06:33:00;;;;;;;27.87;19.97;;;1.50;99.90;;;;;;5047673;28;20439;-83
2023/01/25 06:35:26;;;;;;;30.27;19.83;;;1.40;99.90;;;;;;5048505;28;20167;-83
2023/01/25 06:37:55;;;;;;;33.60;21.57;;;1.50;99.90;;;;;;5048096;28;20549;-83
2023/01/25 06:40:20;;;;;;;30.10;19.97;;;1.50;99.90;;;;;;5045072;28;20037;-83
2023/01/25 06:42:46;;;;;;;25.80;18.87;;;1.50;99.90;;;;;;5045929;28;20052;-83
2023/01/25 06:45:12;;;;;;;33.87;18.13;;;1.50;99.90;;;;;;5046655;28;20397;-82
2023/01/25 06:47:38;;;;;;;31.27;21.33;;;1.50;99.90;;;;;;5039342;28;20076;-85
2023/01/25 06:50:04;;;;;;;35.53;19.33;;;1.50;99.90;;;;;;5047825;28;20041;-85
2023/01/25 06:52:30;;;;;;;35.87;20.90;;;1.50;99.90;;;;;;5043649;28;20041;-82
2023/01/25 06:54:56;;;;;;;34.77;21.70;;;1.40;99.90;;;;;;5041043;28;20041;-84
2023/01/25 06:57:22;;;;;;;27.53;18.50;;;1.50;99.90;;;;;;5041020;28;20464;-84
2023/01/25 06:59:48;;;;;;;37.23;21.70;;;1.50;99.90;;;;;;5048114;28;20119;-84
2023/01/25 07:02:15;;;;;;;34.20;20.57;;;1.50;99.90;;;;;;5045143;28;20489;-84
2023/01/25 07:04:41;;;;;;;36.63;20.07;;;1.50;99.90;;;;;;5045536;28;20320;-83
2023/01/25 07:07:08;;;;;;;30.60;21.10;;;1.50;99.90;;;;;;5043297;28;20044;-83
2023/01/25 07:09:36;;;;;;;28.00;21.00;;;1.50;99.90;;;;;;5043894;28;20049;-83
2023/01/25 07:12:05;;;;;;;26.83;20.43;;;1.50;99.90;;;;;;5060873;28;20072;-83
2023/01/25 07:14:31;;;;;;;31.80;22.10;;;1.50;99.90;;;;;;5066150;28;20049;-83
2023/01/25 07:16:57;;;;;;;30.17;18.10;;;1.50;99.90;;;;;;5044088;28;20098;-83
2023/01/25 07:19:22;;;;;;;31.27;21.17;;;1.50;99.90;;;;;;5048954;28;20032;-83
2023/01/25 07:21:48;;;;;;;31.63;19.27;;;1.50;99.90;;;;;;5066793;28;20055;-83
2023/01/25 07:24:16;;;;;;;29.50;17.70;;;1.50;99.90;;;;;;5066300;28;20072;-82
2023/01/25 07:26:42;;;;;;;32.50;20.00;;;1.50;99.90;;;;;;5021761;28;20132;-83
2023/01/25 07:29:12;;;;;;;35.90;23.17;;;1.50;99.90;;;;;;5046965;28;20117;-81
2023/01/25 07:31:37;;;;;;;34.30;21.50;;;1.50;99.90;;;;;;5046099;28;20119;-81
2023/01/25 07:34:03;;;;;;;35.23;21.07;;;1.50;99.90;;;;;;5028458;28;20601;-81
2023/01/25 07:36:29;;;;;;;28.40;19.10;;;1.40;99.90;;;;;;5044770;28;20041;-81
2023/01/25 07:38:57;;;;;;;31.60;19.03;;;1.50;99.90;;;;;;5045340;28;20051;-81
2023/01/25 07:41:25;;;;;;;28.43;18.00;;;1.40;99.90;;;;;;5045976;28;20045;-81
2023/01/25 07:43:51;;;;;;;28.77;17.60;;;1.40;99.90;;;;;;5028084;28;20041;-81
2023/01/25 07:46:17;;;;;;;36.63;21.73;;;1.40;99.90;;;;;;5046757;28;20373;-81
2023/01/25 07:48:50;;;;;;;32.33;18.43;;;1.50;99.90;;;;;;5045880;28;20037;-82
2023/01/25 07:51:21;;;;;;;27.33;18.27;;;1.50;99.90;;;;;;5046703;28;20105;-82
2023/01/25 07:53:49;;;;;;;35.30;20.63;;;1.50;99.90;;;;;;5045364;28;20040;-81
2023/01/25 07:56:14;;;;;;;32.97;21.20;;;1.50;99.90;;;;;;5046286;28;20037;-81
2023/01/25 07:58:40;;;;;;;25.10;19.50;;;1.50;99.90;;;;;;5045169;28;20057;-82
2023/01/25 08:01:11;;;;;;;28.27;17.50;;;1.50;99.90;;;;;;5045685;28;20041;-83
2023/01/25 08:03:37;;;;;;;31.43;19.30;;;1.50;99.90;;;;;;5045603;28;20098;-81
2023/01/25 08:06:06;;;;;;;32.43;18.20;;;1.50;99.90;;;;;;5045467;28;20512;-82
2023/01/25 08:08:34;;;;;;;32.43;19.33;;;1.50;99.90;;;;;;5044395;28;20084;-82
2023/01/25 08:11:06;;;;;;;33.90;19.80;;;1.50;99.90;;;;;;5045373;28;20045;-82
2023/01/25 08:13:32;;;;;;;22.42;17.50;;;1.50;99.90;;;;;;5045613;28;20080;-81
2023/01/25 08:15:58;;;;;;;36.47;20.63;;;1.50;99.90;;;;;;5057948;28;20044;-81
2023/01/25 08:18:24;;;;;;;36.73;17.73;;;1.50;99.90;;;;;;5047348;28;20052;-81
2023/01/25 08:20:50;;;;;;;26.97;18.80;;;1.50;99.90;;;;;;5065844;28;20516;-81
2023/01/25 08:23:16;;;;;;;37.63;18.67;;;1.50;99.90;;;;;;5046703;28;20415;-81
2023/01/25 08:25:41;;;;;;;29.17;17.60;;;1.50;99.90;;;;;;5065265;28;20045;-81
2023/01/25 08:28:09;;;;;;;32.20;17.47;;;1.50;99.90;;;;;;5065072;28;20039;-81
2023/01/25 08:30:35;;;;;;;28.77;18.33;;;1.50;99.90;;;;;;5065297;28;20037;-82
2023/01/25 08:33:04;;;;;;;31.73;17.87;;;1.50;99.90;;;;;;5065313;28;20447;-81
2023/01/25 08:35:29;;;;;;;26.30;17.83;;;1.60;99.90;;;;;;5064735;28;20145;-81
2023/01/25 08:37:55;;;;;;;31.33;21.43;;;1.60;99.90;;;;;;5065273;28;20112;-81
2023/01/25 08:40:20;;;;;;;26.80;16.93;;;1.60;99.90;;;;;;5064065;28;20044;-81
2023/01/25 08:42:46;;;;;;;22.83;17.20;;;1.60;99.90;;;;;;5065832;28;20511;-81
2023/01/25 08:45:12;;;;;;;21.20;15.03;;;1.60;99.90;;;;;;5064935;28;20457;-82
2023/01/25 08:47:37;;;;;;;26.60;17.17;;;1.50;99.90;;;;;;5064652;28;20051;-82
2023/01/25 08:50:04;;;;;;;34.43;15.20;;;1.50;99.90;;;;;;5065389;28;20060;-82
2023/01/25 08:52:29;;;;;;;25.47;15.87;;;1.60;99.90;;;;;;5047464;28;20053;-81
2023/01/25 08:54:55;;;;;;;21.17;15.03;;;1.60;99.90;;;;;;5064124;28;20416;-82
2023/01/25 08:57:21;;;;;;;23.03;16.37;;;1.60;99.90;;;;;;5029860;28;20469;-81
2023/01/25 08:59:47;;;;;;;27.37;16.07;;;1.60;99.90;;;;;;5065330;28;20049;-81
2023/01/25 09:02:12;;;;;;;22.80;14.40;;;1.60;99.90;;;;;;5047215;28;20087;-81
2023/01/25 09:04:38;;;;;;;25.80;14.07;;;1.60;99.90;;;;;;5064601;28;20041;-81
2023/01/25 09:07:04;;;;;;;24.33;14.50;;;1.60;99.90;;;;;;5064986;28;20438;-81
2023/01/25 09:09:30;;;;;;;25.83;14.23;;;1.60;99.90;;;;;;5029115;28;20056;-82
2023/01/25 09:11:56;;;;;;;33.70;17.10;;;1.60;99.90;;;;;;5049526;28;20056;-82
2023/01/25 09:14:22;;;;;;;29.37;19.70;;;1.60;99.90;;;;;;5068705;28;20041;-81
2023/01/25 09:16:50;;;;;;;29.70;18.73;;;1.60;99.90;;;;;;5048779;28;20134;-81
2023/01/25 09:19:19;;;;;;;37.73;20.90;;;1.70;99.90;;;;;;5048849;28;20389;-82
2023/01/25 09:21:44;;;;;;;37.30;18.77;;;1.70;99.90;;;;;;5030324;28;20287;-81
2023/01/25 09:24:13;;;;;;;30.17;19.03;;;1.70;99.90;;;;;;5047545;28;20546;-81
2023/01/25 09:26:41;;;;;;;29.50;20.20;;;1.70;99.90;;;;;;5030235;28;20083;-82
2023/01/25 09:29:08;;;;;;;40.93;17.13;;;1.70;99.90;;;;;;5048185;28;20048;-82
2023/01/25 09:31:35;;;;;;;32.33;19.33;;;1.70;99.90;;;;;;5030241;28;20044;-81
2023/01/25 09:34:01;;;;;;;36.90;20.10;;;1.70;99.90;;;;;;5047923;28;20485;-81
2023/01/25 09:36:27;;;;;;;39.13;22.47;;;1.70;99.90;;;;;;5047598;28;20087;-81
2023/01/25 09:38:54;;;;;;;36.33;17.63;;;1.70;99.90;;;;;;5047303;28;20069;-82
2023/01/25 09:41:33;;;;;;;46.77;22.57;;;1.70;99.90;;;;;;5030788;28;20111;-82
2023/01/25 09:44:14;;;;;;;41.90;22.90;;;1.70;99.90;;;;;;5030318;28;20041;-81
2023/01/25 09:46:55;;;;;;;38.30;23.37;;;1.80;99.90;;;;;;5047574;28;20046;-81
2023/01/25 09:49:46;;;;;;;34.37;20.93;;;1.80;99.90;;;;;;5047868;28;20045;-82
2023/01/25 09:52:32;;;;;;;43.47;21.07;;;1.80;99.90;;;;;;5048028;28;20045;-81
2023/01/25 09:54:58;;;;;;;47.47;23.37;;;1.80;99.90;;;;;;5028557;28;20476;-82
2023/01/25 09:57:31;;;;;;;46.47;23.80;;;1.80;99.90;;;;;;5047550;28;20043;-81
2023/01/25 10:00:02;;;;;;;45.57;22.90;;;1.80;99.90;;;;;;5029811;28;20056;-81
2023/01/25 10:02:50;;;;;;;46.40;23.63;;;1.80;99.90;;;;;;5047167;28;20040;-81
2023/01/25 10:05:23;;;;;;;51.53;23.27;;;1.80;99.90;;;;;;5047959;28;20102;-81
2023/01/25 10:07:57;;;;;;;50.23;23.13;;;1.80;99.90;;;;;;5048305;28;20045;-81
2023/01/25 10:10:31;;;;;;;44.87;25.27;;;1.80;99.90;;;;;;5047308;28;20536;-81
2023/01/25 10:13:02;;;;;;;37.97;23.10;;;1.90;99.90;;;;;;5047635;28;20071;-81
2023/01/25 10:15:36;;;;;;;45.83;22.07;;;1.90;99.90;;;;;;5055420;28;20040;-83
2023/01/25 10:18:24;;;;;;;46.33;22.37;;;1.90;99.90;;;;;;5066966;28;20040;-81
2023/01/25 10:21:00;;;;;;;41.27;21.53;;;1.90;99.90;;;;;;5067536;28;20408;-82
2023/01/25 10:23:46;;;;;;;39.90;22.47;;;1.80;99.90;;;;;;5065379;28;20500;-81
2023/01/25 10:26:25;;;;;;;49.77;22.37;;;1.90;99.90;;;;;;5011386;28;20044;-81
2023/01/25 10:29:17;;;;;;;47.47;23.63;;;1.90;99.90;;;;;;5049409;28;20048;-81
2023/01/25 10:31:52;;;;;;;40.88;19.95;;;1.90;99.90;;;;;;5059952;28;20869;-81
2023/01/25 10:34:24;;;;;;;43.57;26.57;;;1.80;99.90;;;;;;5067692;28;20049;-83
2023/01/25 10:36:54;;;;;;;56.93;31.60;;;1.90;99.90;;;;;;5066871;28;20044;-81
2023/01/25 10:39:21;;;;;;;41.50;24.83;;;1.90;99.90;;;;;;5066171;28;20079;-81
2023/01/25 10:42:00;;;;;;;46.33;26.13;;;1.90;99.90;;;;;;5049693;28;20508;-82
2023/01/25 10:44:27;;;;;;;41.87;23.17;;;1.90;99.90;;;;;;5066643;28;20093;-83
2023/01/25 10:47:28;;;;;;;42.43;24.90;;;1.90;99.90;;;;;;5067657;28;20084;-82
2023/01/25 10:49:58;;;;;;;46.07;23.40;;;2.00;99.90;;;;;;5066042;28;20444;-81
2023/01/25 10:52:30;;;;;;;49.43;24.93;;;2.00;99.90;;;;;;5048401;28;20119;-82
2023/01/25 10:55:16;;;;;;;61.60;28.67;;;2.00;99.90;;;;;;5065802;28;20462;-83
2023/01/25 10:57:57;;;;;;;60.80;29.47;;;1.90;99.90;;;;;;5066134;28;20119;-82
2023/01/25 11:00:31;;;;;;;47.07;27.77;;;2.00;99.90;;;;;;5049026;28;20044;-82
2023/01/25 11:03:00;;;;;;;52.58;27.08;;;2.00;99.90;;;;;;5048908;28;20044;-82
2023/01/25 11:05:55;;;;;;;44.83;27.10;;;2.00;99.90;;;;;;5048478;28;20048;-83
2023/01/25 11:08:38;;;;;;;50.07;26.93;;;2.00;99.90;;;;;;5063238;28;20051;-82
2023/01/25 11:11:22;;;;;;;55.50;25.45;;;2.00;99.90;;;;;;5063659;28;20048;-81
2023/01/25 11:13:48;;;;;;;55.33;29.27;;;2.00;99.90;;;;;;5067553;28;20064;-82
2023/01/25 11:16:28;;;;;;;63.83;32.63;;;2.00;99.90;;;;;;5059736;28;20044;-82
2023/01/25 11:18:56;;;;;;;48.00;28.70;;;2.00;99.90;;;;;;5066739;28;20036;-85
2023/01/25 11:32:58;;;;;;;45.70;26.80;;;2.00;99.90;;;;;;4855501;29;20133;-84
2023/01/25 11:35:31;;;;;;;63.33;27.37;;;2.10;99.90;;;;;;4857182;29;20570;-86
2023/01/25 11:38:23;;;;;;;46.30;24.43;;;2.10;99.90;;;;;;4888112;28;20263;-87
2023/01/25 11:41:15;;;;;;;55.23;29.67;;;2.20;99.90;;;;;;4968840;28;20055;-86
2023/01/25 11:44:05;;;;;;;65.90;28.92;;;2.20;99.90;;;;;;4966300;28;20073;-86
2023/01/25 11:46:50;;;;;;;54.53;26.63;;;2.20;99.90;;;;;;4968572;28;20063;-86
2023/01/25 11:49:44;;;;;;;64.10;29.63;;;2.30;99.90;;;;;;4953269;28;20054;-87
2023/01/25 11:52:37;;;;;;;49.57;27.27;;;2.30;99.90;;;;;;4969262;28;20039;-86
2023/01/25 11:55:08;;;;;;;54.47;26.13;;;2.30;99.90;;;;;;4979852;28;20433;-87
2023/01/25 11:57:43;;;;;;;57.57;30.87;;;2.30;99.90;;;;;;5066590;28;20041;-86
2023/01/25 12:00:45;;;;;;;51.13;28.57;;;2.30;99.90;;;;;;5028529;28;20044;-87
2023/01/25 12:03:35;;;;;;;50.00;26.53;;;2.30;99.90;;;;;;5025389;28;20582;-86
2023/01/25 12:06:19;;;;;;;37.10;22.63;;;2.30;99.90;;;;;;5062112;28;20435;-87
2023/01/25 12:09:29;;;;;;;44.83;28.07;;;2.40;99.90;;;;;;5044293;28;20051;-83
2023/01/25 12:12:16;;;;;;;52.43;28.67;;;2.40;99.90;;;;;;5036672;28;20052;-83
2023/01/25 12:15:19;;;;;;;53.57;27.00;;;2.40;99.90;;;;;;5044678;28;20405;-83
2023/01/25 12:17:56;;;;;;;45.23;23.20;;;2.40;99.90;;;;;;5060158;28;20412;-88
2023/01/25 12:20:30;;;;;;;55.27;27.87;;;2.40;99.90;;;;;;5030389;28;20052;-83
2023/01/25 12:23:37;;;;;;;52.27;27.13;;;2.40;99.90;;;;;;5047911;28;20052;-82
2023/01/25 12:26:14;;;;;;;41.87;23.40;;;2.50;99.90;;;;;;4978363;28;20492;-87
2023/01/25 12:28:55;;;;;;;46.27;26.17;;;2.50;99.90;;;;;;5047652;28;20423;-94
2023/01/25 12:31:46;;;;;;;49.23;25.47;;;2.50;99.90;;;;;;5048636;28;20123;-93
2023/01/25 12:34:39;;;;;;;33.50;20.73;;;2.60;99.90;;;;;;5046320;28;20048;-85
2023/01/25 12:37:21;;;;;;;43.03;27.13;;;2.60;99.90;;;;;;5057757;28;20041;-89
2023/01/25 12:40:17;;;;;;;40.33;26.30;;;2.60;99.90;;;;;;5025082;28;20070;-84
2023/01/25 12:42:50;;;;;;;50.90;24.67;;;2.70;99.90;;;;;;5049418;28;20101;-86
2023/01/25 12:45:44;;;;;;;;;;;;;;;;;;;;;
2023/01/25 12:51:00;;;;;;;41.53;23.33;;;2.70;99.90;;;;;;5100817;22;20061;-84
2023/01/25 12:53:32;;;;;;;46.57;22.83;;;2.70;99.90;;;;;;5048009;28;20044;-87
2023/01/25 12:56:11;;;;;;;53.20;24.67;;;2.70;99.90;;;;;;5048911;28;20036;-93
2023/01/25 12:58:40;;;;;;;52.30;26.57;;;2.80;99.90;;;;;;5049400;28;20099;-85
2023/01/25 13:01:06;;;;;;;53.37;26.83;;;2.80;99.90;;;;;;5047483;28;20441;-85
2023/01/25 13:03:43;;;;;;;53.73;29.53;;;2.80;99.90;;;;;;5048395;28;20045;-92
2023/01/25 13:06:17;;;;;;;56.33;24.17;;;2.90;99.90;;;;;;5040902;28;20123;-82
2023/01/25 13:09:03;;;;;;;54.83;25.47;;;2.80;99.90;;;;;;5048929;28;20397;-82